sensor_id;sensor_type;location;lat;lon;timestamp;pressure;altitude;pressure_sealevel;temperature;humidity
24013;BME280;12220;50.194;18.948;2023-01-10T00:01:17;100929.65;;;7.80;78.36
24013;BME280;12220;50.194;18.948;2023-01-10T00:03:24;100924.29;;;7.78;78.39
24013;BME280;12220;50.194;18.948;2023-01-10T00:05:25;100930.78;;;7.76;78.39
24013;BME280;12220;50.194;18.948;2023-01-10T00:07:27;100931.82;;;7.73;78.38
24013;BME280;12220;50.194;18.948;2023-01-10T00:09:28;100940.00;;;7.73;78.37
24013;BME280;12220;50.194;18.948;2023-01-10T00:11:39;100933.94;;;7.68;78.24
24013;BME280;12220;50.194;18.948;2023-01-10T00:14:01;100941.38;;;7.64;78.17
24013;BME280;12220;50.194;18.948;2023-01-10T00:16:07;100940.61;;;7.62;78.27
24013;BME280;12220;50.194;18.948;2023-01-10T00:18:09;100940.70;;;7.61;78.32
24013;BME280;12220;50.194;18.948;2023-01-10T00:20:11;100944.38;;;7.60;78.30
24013;BME280;12220;50.194;18.948;2023-01-10T00:22:16;100947.09;;;7.60;78.29
24013;BME280;12220;50.194;18.948;2023-01-10T00:24:23;100944.38;;;7.60;78.36
24013;BME280;12220;50.194;18.948;2023-01-10T00:26:24;100954.48;;;7.58;78.30
24013;BME280;12220;50.194;18.948;2023-01-10T00:28:26;100963.62;;;7.57;78.23
24013;BME280;12220;50.194;18.948;2023-01-10T00:30:31;100950.95;;;7.56;78.22
24013;BME280;12220;50.194;18.948;2023-01-10T00:32:35;100961.06;;;7.54;78.26
24013;BME280;12220;50.194;18.948;2023-01-10T00:34:36;100956.65;;;7.51;78.29
24013;BME280;12220;50.194;18.948;2023-01-10T00:36:38;100958.51;;;7.50;78.33
24013;BME280;12220;50.194;18.948;2023-01-10T00:38:47;100960.37;;;7.50;78.18
24013;BME280;12220;50.194;18.948;2023-01-10T00:40:49;100966.84;;;7.47;78.27
24013;BME280;12220;50.194;18.948;2023-01-10T00:42:51;100975.88;;;7.48;78.31
24013;BME280;12220;50.194;18.948;2023-01-10T00:45:05;100980.48;;;7.47;78.33
24013;BME280;12220;50.194;18.948;2023-01-10T00:47:07;100979.57;;;7.47;78.30
24013;BME280;12220;50.194;18.948;2023-01-10T00:49:08;100986.01;;;7.46;78.32
24013;BME280;12220;50.194;18.948;2023-01-10T00:51:14;100992.41;;;7.45;78.34
24013;BME280;12220;50.194;18.948;2023-01-10T00:53:16;100989.68;;;7.45;78.38
24013;BME280;12220;50.194;18.948;2023-01-10T00:55:19;100990.55;;;7.45;78.38
24013;BME280;12220;50.194;18.948;2023-01-10T00:57:21;100991.54;;;7.44;78.39
24013;BME280;12220;50.194;18.948;2023-01-10T00:59:23;100995.13;;;7.45;78.38
24013;BME280;12220;50.194;18.948;2023-01-10T01:01:25;101002.36;;;7.46;78.39
24013;BME280;12220;50.194;18.948;2023-01-10T01:03:35;101004.09;;;7.47;78.41
24013;BME280;12220;50.194;18.948;2023-01-10T01:05:43;101006.82;;;7.47;78.42
24013;BME280;12220;50.194;18.948;2023-01-10T01:07:47;101009.63;;;7.45;78.29
24013;BME280;12220;50.194;18.948;2023-01-10T01:09:49;101009.63;;;7.45;78.31
24013;BME280;12220;50.194;18.948;2023-01-10T01:12:02;101010.62;;;7.44;78.35
24013;BME280;12220;50.194;18.948;2023-01-10T01:14:11;101013.26;;;7.46;78.35
24013;BME280;12220;50.194;18.948;2023-01-10T01:16:12;101009.71;;;7.44;78.41
24013;BME280;12220;50.194;18.948;2023-01-10T01:18:17;101015.07;;;7.45;78.47
24013;BME280;12220;50.194;18.948;2023-01-10T01:20:19;101018.71;;;7.46;78.68
24013;BME280;12220;50.194;18.948;2023-01-10T01:22:26;101019.66;;;7.45;78.45
24013;BME280;12220;50.194;18.948;2023-01-10T01:24:27;101018.87;;;7.43;78.41
24013;BME280;12220;50.194;18.948;2023-01-10T01:26:29;101018.87;;;7.43;78.39
24013;BME280;12220;50.194;18.948;2023-01-10T01:28:31;101025.18;;;7.43;78.51
24013;BME280;12220;50.194;18.948;2023-01-10T01:30:41;101027.04;;;7.43;78.53
24013;BME280;12220;50.194;18.948;2023-01-10T01:32:43;101025.27;;;7.42;78.51
24013;BME280;12220;50.194;18.948;2023-01-10T01:34:44;101035.30;;;7.41;78.53
24013;BME280;12220;50.194;18.948;2023-01-10T01:36:46;101031.76;;;7.39;78.47
24013;BME280;12220;50.194;18.948;2023-01-10T01:38:56;101039.14;;;7.37;78.58
24013;BME280;12220;50.194;18.948;2023-01-10T01:40:57;101039.14;;;7.37;78.66
24013;BME280;12220;50.194;18.948;2023-01-10T01:42:59;101027.34;;;7.37;78.66
24013;BME280;12220;50.194;18.948;2023-01-10T01:49:38;101032.80;;;7.37;78.78
24013;BME280;12220;50.194;18.948;2023-01-10T01:51:41;101035.51;;;7.37;78.83
24013;BME280;12220;50.194;18.948;2023-01-10T01:53:48;101038.23;;;7.37;78.85
24013;BME280;12220;50.194;18.948;2023-01-10T01:55:52;101031.92;;;7.36;78.80
24013;BME280;12220;50.194;18.948;2023-01-10T01:57:57;101031.13;;;7.34;78.68
24013;BME280;12220;50.194;18.948;2023-01-10T02:00:00;101039.43;;;7.31;78.72
24013;BME280;12220;50.194;18.948;2023-01-10T02:02:12;101039.59;;;7.28;78.78
24013;BME280;12220;50.194;18.948;2023-01-10T02:04:22;101045.20;;;7.25;78.86
24013;BME280;12220;50.194;18.948;2023-01-10T02:06:27;101039.83;;;7.23;78.88
24013;BME280;12220;50.194;18.948;2023-01-10T02:08:31;101047.14;;;7.23;78.89
24013;BME280;12220;50.194;18.948;2023-01-10T02:12:51;101045.52;;;7.19;78.98
24013;BME280;12220;50.194;18.948;2023-01-10T02:14:53;101040.95;;;7.19;79.03
24013;BME280;12220;50.194;18.948;2023-01-10T02:16:55;101044.66;;;7.18;79.05
24013;BME280;12220;50.194;18.948;2023-01-10T02:18:57;101039.22;;;7.18;79.10
24013;BME280;12220;50.194;18.948;2023-01-10T02:21:12;101048.33;;;7.17;79.10
24013;BME280;12220;50.194;18.948;2023-01-10T02:34:52;101070.12;;;7.17;79.27
24013;BME280;12220;50.194;18.948;2023-01-10T02:41:49;101083.66;;;7.19;79.34
24013;BME280;12220;50.194;18.948;2023-01-10T02:46:25;101086.30;;;7.20;79.37
24013;BME280;12220;50.194;18.948;2023-01-10T02:48:28;101085.43;;;7.20;79.34
24013;BME280;12220;50.194;18.948;2023-01-10T02:55:12;101088.39;;;7.15;79.29
24013;BME280;12220;50.194;18.948;2023-01-10T03:08:59;101112.39;;;7.07;79.42
24013;BME280;12220;50.194;18.948;2023-01-10T03:11:11;101108.80;;;7.06;79.47
24013;BME280;12220;50.194;18.948;2023-01-10T03:13:20;101114.29;;;7.05;79.44
24013;BME280;12220;50.194;18.948;2023-01-10T03:15:24;101118.79;;;7.06;79.43
24013;BME280;12220;50.194;18.948;2023-01-10T03:17:29;101126.96;;;7.06;79.45
24013;BME280;12220;50.194;18.948;2023-01-10T03:19:34;101125.05;;;7.08;79.43
24013;BME280;12220;50.194;18.948;2023-01-10T03:21:38;101129.60;;;7.07;79.41
24013;BME280;12220;50.194;18.948;2023-01-10T03:23:41;101125.05;;;7.08;79.31
24013;BME280;12220;50.194;18.948;2023-01-10T03:25:43;101130.59;;;7.06;79.27
24013;BME280;12220;50.194;18.948;2023-01-10T03:30:17;101142.42;;;7.05;79.25
24013;BME280;12220;50.194;18.948;2023-01-10T03:32:29;101148.74;;;7.06;79.27
24013;BME280;12220;50.194;18.948;2023-01-10T03:34:33;101156.99;;;7.04;79.22
24013;BME280;12220;50.194;18.948;2023-01-10T03:36:41;101156.12;;;7.04;79.27
24013;BME280;12220;50.194;18.948;2023-01-10T03:41:06;101161.56;;;7.04;79.35
24013;BME280;12220;50.194;18.948;2023-01-10T03:43:20;101166.94;;;7.05;79.33
24013;BME280;12220;50.194;18.948;2023-01-10T03:45:45;101163.30;;;7.05;79.31
24013;BME280;12220;50.194;18.948;2023-01-10T03:47:50;101168.75;;;7.05;79.35
24013;BME280;12220;50.194;18.948;2023-01-10T03:49:58;101177.83;;;7.05;79.35
24013;BME280;12220;50.194;18.948;2023-01-10T03:52:01;101181.42;;;7.06;79.34
24013;BME280;12220;50.194;18.948;2023-01-10T03:54:04;101178.70;;;7.06;79.34
24013;BME280;12220;50.194;18.948;2023-01-10T03:56:06;100998.54;;;5.83;79.28
24013;BME280;12220;50.194;18.948;2023-01-10T03:58:08;101181.34;;;7.07;79.44
24013;BME280;12220;50.194;18.948;2023-01-10T04:00:10;101179.52;;;7.08;79.46
24013;BME280;12220;50.194;18.948;2023-01-10T04:02:12;101192.16;;;7.09;79.45
24013;BME280;12220;50.194;18.948;2023-01-10T04:04:21;101194.96;;;7.07;79.31
24013;BME280;12220;50.194;18.948;2023-01-10T04:06:22;101195.94;;;7.06;79.33
24013;BME280;12220;50.194;18.948;2023-01-10T04:08:24;101195.98;;;7.05;79.33
24013;BME280;12220;50.194;18.948;2023-01-10T04:10:25;101190.68;;;7.02;79.28
24013;BME280;12220;50.194;18.948;2023-01-10T04:12:35;101193.49;;;7.00;79.32
24013;BME280;12220;50.194;18.948;2023-01-10T04:14:37;101206.38;;;6.96;79.39
24013;BME280;12220;50.194;18.948;2023-01-10T04:16:38;101209.18;;;6.95;79.50
24013;BME280;12220;50.194;18.948;2023-01-10T04:18:40;101214.62;;;6.95;79.63
24013;BME280;12220;50.194;18.948;2023-01-10T04:20:50;101219.10;;;6.96;79.75
24013;BME280;12220;50.194;18.948;2023-01-10T04:22:52;101236.33;;;6.96;79.80
24013;BME280;12220;50.194;18.948;2023-01-10T04:24:54;101217.20;;;6.98;79.80
24013;BME280;12220;50.194;18.948;2023-01-10T04:26:56;101219.85;;;7.00;79.79
24013;BME280;12220;50.194;18.948;2023-01-10T04:29:05;101227.94;;;7.01;79.80
24013;BME280;12220;50.194;18.948;2023-01-10T04:31:07;101227.94;;;7.01;79.75
24013;BME280;12220;50.194;18.948;2023-01-10T04:33:08;101228.01;;;7.00;79.70
24013;BME280;12220;50.194;18.948;2023-01-10T04:35:12;101227.13;;;6.99;79.74
24013;BME280;12220;50.194;18.948;2023-01-10T04:37:20;101233.45;;;7.00;79.81
24013;BME280;12220;50.194;18.948;2023-01-10T04:39:22;101237.05;;;7.00;79.85
24013;BME280;12220;50.194;18.948;2023-01-10T04:41:23;101237.96;;;7.01;79.86
24013;BME280;12220;50.194;18.948;2023-01-10T04:43:25;101242.42;;;7.02;79.86
24013;BME280;12220;50.194;18.948;2023-01-10T04:45:36;101252.37;;;7.03;79.88
24013;BME280;12220;50.194;18.948;2023-01-10T04:47:38;101252.37;;;7.03;79.91
24013;BME280;12220;50.194;18.948;2023-01-10T04:49:39;101247.87;;;7.02;79.87
24013;BME280;12220;50.194;18.948;2023-01-10T04:51:41;101247.01;;;7.01;79.87
24013;BME280;12220;50.194;18.948;2023-01-10T04:53:50;101256.88;;;7.04;79.92
24013;BME280;12220;50.194;18.948;2023-01-10T04:55:52;101258.69;;;7.03;79.93
24013;BME280;12220;50.194;18.948;2023-01-10T04:57:53;101263.27;;;7.03;79.88
24013;BME280;12220;50.194;18.948;2023-01-10T04:59:55;101261.56;;;7.00;79.88
24013;BME280;12220;50.194;18.948;2023-01-10T05:02:05;101270.63;;;7.01;79.91
24013;BME280;12220;50.194;18.948;2023-01-10T05:04:07;101275.25;;;6.98;79.99
24013;BME280;12220;50.194;18.948;2023-01-10T05:06:09;101273.43;;;6.99;80.07
24013;BME280;12220;50.194;18.948;2023-01-10T05:08:10;101283.41;;;6.98;80.10
24013;BME280;12220;50.194;18.948;2023-01-10T05:10:21;101287.05;;;6.99;80.00
24013;BME280;12220;50.194;18.948;2023-01-10T05:12:22;101291.65;;;6.97;80.03
24013;BME280;12220;50.194;18.948;2023-01-10T05:14:24;101296.24;;;6.96;80.05
24013;BME280;12220;50.194;18.948;2023-01-10T05:16:25;101307.13;;;6.96;80.10
24013;BME280;12220;50.194;18.948;2023-01-10T05:18:36;101309.02;;;6.94;80.12
24013;BME280;12220;50.194;18.948;2023-01-10T05:20:37;101306.29;;;6.94;80.17
24013;BME280;12220;50.194;18.948;2023-01-10T05:22:38;101311.73;;;6.94;80.18
24013;BME280;12220;50.194;18.948;2023-01-10T05:24:40;101310.86;;;6.94;80.20
24013;BME280;12220;50.194;18.948;2023-01-10T05:26:51;101315.44;;;6.93;80.18
24013;BME280;12220;50.194;18.948;2023-01-10T05:28:52;101325.49;;;6.91;80.19
24013;BME280;12220;50.194;18.948;2023-01-10T05:30:54;101331.92;;;6.90;80.24
24013;BME280;12220;50.194;18.948;2023-01-10T05:32:55;101335.52;;;6.91;80.27
24013;BME280;12220;50.194;18.948;2023-01-10T05:35:06;101332.85;;;6.89;80.31
24013;BME280;12220;50.194;18.948;2023-01-10T05:37:08;101335.59;;;6.89;80.34
24013;BME280;12220;50.194;18.948;2023-01-10T05:39:09;101338.30;;;6.89;80.35
24013;BME280;12220;50.194;18.948;2023-01-10T05:41:11;101338.30;;;6.89;80.33
24013;BME280;12220;50.194;18.948;2023-01-10T05:43:21;101350.07;;;6.90;80.34
24013;BME280;12220;50.194;18.948;2023-01-10T05:45:22;101345.63;;;6.87;80.26
24013;BME280;12220;50.194;18.948;2023-01-10T05:47:24;101355.87;;;6.82;80.26
24013;BME280;12220;50.194;18.948;2023-01-10T05:49:25;100379.26;;;0.57;79.62
24013;BME280;12220;50.194;18.948;2023-01-10T05:51:36;101358.80;;;6.77;80.34
24013;BME280;12220;50.194;18.948;2023-01-10T05:53:37;101357.97;;;6.75;80.37
24013;BME280;12220;50.194;18.948;2023-01-10T05:55:39;101351.64;;;6.75;80.35
24013;BME280;12220;50.194;18.948;2023-01-10T05:57:40;101358.11;;;6.72;80.39
24013;BME280;12220;50.194;18.948;2023-01-10T05:59:51;101364.56;;;6.70;80.38
24013;BME280;12220;50.194;18.948;2023-01-10T06:01:52;101369.27;;;6.66;80.40
24013;BME280;12220;50.194;18.948;2023-01-10T06:03:54;101380.23;;;6.65;80.42
24013;BME280;12220;50.194;18.948;2023-01-10T06:05:55;101379.38;;;6.62;80.46
24013;BME280;12220;50.194;18.948;2023-01-10T06:08:06;101382.10;;;6.62;80.59
24013;BME280;12220;50.194;18.948;2023-01-10T06:10:08;101385.87;;;6.60;80.48
24013;BME280;12220;50.194;18.948;2023-01-10T06:12:10;101393.13;;;6.59;80.48
24013;BME280;12220;50.194;18.948;2023-01-10T06:14:11;101389.54;;;6.59;80.51
24013;BME280;12220;50.194;18.948;2023-01-10T06:16:21;101396.82;;;6.58;80.56
24013;BME280;12220;50.194;18.948;2023-01-10T06:18:22;101400.42;;;6.59;80.60
24013;BME280;12220;50.194;18.948;2023-01-10T06:20:25;101407.71;;;6.58;80.53
24013;BME280;12220;50.194;18.948;2023-01-10T06:22:27;101404.09;;;6.58;80.52
24013;BME280;12220;50.194;18.948;2023-01-10T06:24:36;101410.43;;;6.58;80.54
24013;BME280;12220;50.194;18.948;2023-01-10T06:26:37;101185.80;;;5.24;80.39
24013;BME280;12220;50.194;18.948;2023-01-10T06:28:39;101419.53;;;6.57;80.56
24013;BME280;12220;50.194;18.948;2023-01-10T06:30:43;101422.26;;;6.57;80.54
24013;BME280;12220;50.194;18.948;2023-01-10T06:32:51;101428.50;;;6.59;80.56
24013;BME280;12220;50.194;18.948;2023-01-10T06:34:52;101432.20;;;6.58;80.53
24013;BME280;12220;50.194;18.948;2023-01-10T06:36:54;101433.95;;;6.59;80.55
24013;BME280;12220;50.194;18.948;2023-01-10T06:38:55;101443.89;;;6.60;80.49
24013;BME280;12220;50.194;18.948;2023-01-10T06:41:06;101436.67;;;6.59;80.54
24013;BME280;12220;50.194;18.948;2023-01-10T06:43:27;101442.05;;;6.61;80.53
24013;BME280;12220;50.194;18.948;2023-01-10T06:45:29;101443.89;;;6.60;80.46
24013;BME280;12220;50.194;18.948;2023-01-10T06:47:30;101445.81;;;6.58;80.48
24013;BME280;12220;50.194;18.948;2023-01-10T06:49:32;101453.84;;;6.61;80.52
24013;BME280;12220;50.194;18.948;2023-01-10T06:51:42;101457.44;;;6.62;80.53
24013;BME280;12220;50.194;18.948;2023-01-10T06:53:44;101463.76;;;6.62;80.48
24013;BME280;12220;50.194;18.948;2023-01-10T06:55:45;101461.03;;;6.62;80.40
24013;BME280;12220;50.194;18.948;2023-01-10T06:57:47;101462.00;;;6.61;80.45
24013;BME280;12220;50.194;18.948;2023-01-10T06:59:57;101468.38;;;6.60;80.41
24013;BME280;12220;50.194;18.948;2023-01-10T07:01:59;101465.66;;;6.60;80.42
24013;BME280;12220;50.194;18.948;2023-01-10T07:04:00;101475.74;;;6.58;80.38
24013;BME280;12220;50.194;18.948;2023-01-10T07:06:03;101464.02;;;6.56;80.34
24013;BME280;12220;50.194;18.948;2023-01-10T07:08:12;101482.45;;;6.50;80.33
24013;BME280;12220;50.194;18.948;2023-01-10T07:10:14;101481.55;;;6.49;80.41
24013;BME280;12220;50.194;18.948;2023-01-10T07:12:16;101477.08;;;6.48;80.45
24013;BME280;12220;50.194;18.948;2023-01-10T07:14:17;101483.33;;;6.50;80.42
24013;BME280;12220;50.194;18.948;2023-01-10T07:16:29;101516.05;;;6.49;80.40
24013;BME280;12220;50.194;18.948;2023-01-10T07:18:31;101488.90;;;6.47;80.38
24013;BME280;12220;50.194;18.948;2023-01-10T07:20:33;101488.02;;;6.47;80.39
24013;BME280;12220;50.194;18.948;2023-01-10T07:22:35;101488.90;;;6.47;80.42
24013;BME280;12220;50.194;18.948;2023-01-10T07:24:42;101495.28;;;6.46;80.42
24013;BME280;12220;50.194;18.948;2023-01-10T07:26:44;101501.79;;;6.42;80.40
24013;BME280;12220;50.194;18.948;2023-01-10T07:28:49;101497.45;;;6.38;80.37
24013;BME280;12220;50.194;18.948;2023-01-10T07:30:51;101503.05;;;6.33;80.49
24013;BME280;12220;50.194;18.948;2023-01-10T07:32:58;101500.46;;;6.30;80.49
24013;BME280;12220;50.194;18.948;2023-01-10T07:35:04;101502.30;;;6.30;80.54
24013;BME280;12220;50.194;18.948;2023-01-10T07:37:05;101498.73;;;6.27;80.59
24013;BME280;12220;50.194;18.948;2023-01-10T07:39:07;101499.65;;;6.28;80.67
24013;BME280;12220;50.194;18.948;2023-01-10T07:41:13;101505.02;;;6.30;80.72
24013;BME280;12220;50.194;18.948;2023-01-10T07:43:14;101509.52;;;6.31;80.79
24013;BME280;12220;50.194;18.948;2023-01-10T07:45:16;101519.44;;;6.32;80.78
24013;BME280;12220;50.194;18.948;2023-01-10T07:47:17;101515.77;;;6.33;80.80
24013;BME280;12220;50.194;18.948;2023-01-10T07:49:28;101518.38;;;6.36;80.80
24013;BME280;12220;50.194;18.948;2023-01-10T07:51:29;101518.30;;;6.37;80.81
24013;BME280;12220;50.194;18.948;2023-01-10T07:53:30;101515.52;;;6.39;80.76
24013;BME280;12220;50.194;18.948;2023-01-10T07:55:35;101512.93;;;6.36;80.77
24013;BME280;12220;50.194;18.948;2023-01-10T07:57:43;101294.40;;;5.01;80.60
24013;BME280;12220;50.194;18.948;2023-01-10T07:59:45;101517.56;;;6.34;80.80
24013;BME280;12220;50.194;18.948;2023-01-10T08:01:46;101531.16;;;6.34;80.82
24013;BME280;12220;50.194;18.948;2023-01-10T08:03:48;101530.20;;;6.35;80.93
24013;BME280;12220;50.194;18.948;2023-01-10T08:05:59;101538.35;;;6.35;80.95
24013;BME280;12220;50.194;18.948;2023-01-10T08:08:05;101544.70;;;6.35;81.00
24013;BME280;12220;50.194;18.948;2023-01-10T08:10:07;101552.86;;;6.35;80.96
24013;BME280;12220;50.194;18.948;2023-01-10T08:12:09;101537.41;;;6.36;80.99
24013;BME280;12220;50.194;18.948;2023-01-10T08:14:13;101550.08;;;6.37;80.98
24013;BME280;12220;50.194;18.948;2023-01-10T08:16:14;101548.23;;;6.37;81.01
24013;BME280;12220;50.194;18.948;2023-01-10T08:18:17;101545.44;;;6.39;81.01
24013;BME280;12220;50.194;18.948;2023-01-10T08:20:18;101543.63;;;6.39;81.11
24013;BME280;12220;50.194;18.948;2023-01-10T08:22:28;101552.55;;;6.43;81.18
24013;BME280;12220;50.194;18.948;2023-01-10T08:24:29;101550.63;;;6.45;81.20
24013;BME280;12220;50.194;18.948;2023-01-10T08:26:31;101554.13;;;6.49;81.24
24013;BME280;12220;50.194;18.948;2023-01-10T08:28:34;101557.60;;;6.52;81.22
24013;BME280;12220;50.194;18.948;2023-01-10T08:30:43;101557.51;;;6.55;81.14
24013;BME280;12220;50.194;18.948;2023-01-10T08:32:45;101554.79;;;6.55;81.08
24013;BME280;12220;50.194;18.948;2023-01-10T08:34:46;101559.33;;;6.55;81.05
24013;BME280;12220;50.194;18.948;2023-01-10T08:36:51;101560.23;;;6.55;81.05
24013;BME280;12220;50.194;18.948;2023-01-10T08:38:58;101568.33;;;6.57;81.09
24013;BME280;12220;50.194;18.948;2023-01-10T08:40:59;101571.05;;;6.57;81.17
24013;BME280;12220;50.194;18.948;2023-01-10T08:43:03;101567.36;;;6.58;81.22
24013;BME280;12220;50.194;18.948;2023-01-10T08:45:06;101574.45;;;6.62;81.24
24013;BME280;12220;50.194;18.948;2023-01-10T08:47:13;101581.69;;;6.63;81.27
24013;BME280;12220;50.194;18.948;2023-01-10T08:49:15;101587.94;;;6.65;81.25
24013;BME280;12220;50.194;18.948;2023-01-10T08:51:17;101599.73;;;6.66;81.18
24013;BME280;12220;50.194;18.948;2023-01-10T08:53:19;101604.20;;;6.67;81.20
24013;BME280;12220;50.194;18.948;2023-01-10T08:55:28;101599.61;;;6.69;81.25
24013;BME280;12220;50.194;18.948;2023-01-10T08:57:31;101602.27;;;6.70;81.28
24013;BME280;12220;50.194;18.948;2023-01-10T08:59:32;101599.41;;;6.73;81.30
24013;BME280;12220;50.194;18.948;2023-01-10T09:01:34;101609.30;;;6.76;81.25
24013;BME280;12220;50.194;18.948;2023-01-10T09:03:43;101614.69;;;6.77;81.24
24013;BME280;12220;50.194;18.948;2023-01-10T09:05:45;101619.22;;;6.77;81.24
24013;BME280;12220;50.194;18.948;2023-01-10T09:07:46;101629.10;;;6.79;81.27
24013;BME280;12220;50.194;18.948;2023-01-10T09:09:48;101627.25;;;6.80;81.30
24013;BME280;12220;50.194;18.948;2023-01-10T09:11:58;101632.61;;;6.83;81.35
24013;BME280;12220;50.194;18.948;2023-01-10T09:13:59;101647.09;;;6.84;81.31
24013;BME280;12220;50.194;18.948;2023-01-10T09:16:01;101638.80;;;6.87;81.32
24013;BME280;12220;50.194;18.948;2023-01-10T09:18:06;101643.31;;;6.88;81.20
24013;BME280;12220;50.194;18.948;2023-01-10T09:20:13;101646.03;;;6.88;81.19
24013;BME280;12220;50.194;18.948;2023-01-10T09:22:14;101651.48;;;6.88;81.17
24013;BME280;12220;50.194;18.948;2023-01-10T09:24:16;101650.56;;;6.87;81.22
24013;BME280;12220;50.194;18.948;2023-01-10T09:26:17;101660.52;;;6.88;81.22
24013;BME280;12220;50.194;18.948;2023-01-10T09:28:28;101657.80;;;6.88;81.23
24013;BME280;12220;50.194;18.948;2023-01-10T09:30:30;101660.58;;;6.87;81.25
24013;BME280;12220;50.194;18.948;2023-01-10T09:32:32;101674.13;;;6.88;81.24
24013;BME280;12220;50.194;18.948;2023-01-10T09:34:33;101677.80;;;6.87;81.26
24013;BME280;12220;50.194;18.948;2023-01-10T09:36:43;101669.63;;;6.87;81.31
24013;BME280;12220;50.194;18.948;2023-01-10T09:38:45;101677.77;;;6.89;81.37
24013;BME280;12220;50.194;18.948;2023-01-10T09:47:33;101680.48;;;6.89;81.27
24013;BME280;12220;50.194;18.948;2023-01-10T09:49:53;101678.70;;;6.88;81.31
24013;BME280;12220;50.194;18.948;2023-01-10T09:52:03;101681.43;;;6.88;81.34
24013;BME280;12220;50.194;18.948;2023-01-10T09:54:18;101681.49;;;6.86;81.40
24013;BME280;12220;50.194;18.948;2023-01-10T09:56:23;101688.74;;;6.86;81.46
24013;BME280;12220;50.194;18.948;2023-01-10T09:58:27;101691.41;;;6.87;81.46
24013;BME280;12220;50.194;18.948;2023-01-10T10:00:42;101693.26;;;6.87;81.43
24013;BME280;12220;50.194;18.948;2023-01-10T10:02:52;101698.70;;;6.87;81.46
24013;BME280;12220;50.194;18.948;2023-01-10T10:07:13;101696.04;;;6.85;81.46
24013;BME280;12220;50.194;18.948;2023-01-10T10:20:49;101704.45;;;6.79;81.45
24013;BME280;12220;50.194;18.948;2023-01-10T10:30:23;101708.18;;;6.76;81.67
24013;BME280;12220;50.194;18.948;2023-01-10T10:32:41;101719.94;;;6.77;81.71
24013;BME280;12220;50.194;18.948;2023-01-10T10:34:57;101719.07;;;6.76;81.71
24013;BME280;12220;50.194;18.948;2023-01-10T10:37:12;101725.39;;;6.77;81.75
24013;BME280;12220;50.194;18.948;2023-01-10T10:41:42;101731.86;;;6.74;81.62
24013;BME280;12220;50.194;18.948;2023-01-10T10:43:46;101730.14;;;6.72;81.60
24013;BME280;12220;50.194;18.948;2023-01-10T10:45:54;101736.52;;;6.71;81.71
24013;BME280;12220;50.194;18.948;2023-01-10T10:48:19;101731.20;;;6.68;81.83
24013;BME280;12220;50.194;18.948;2023-01-10T10:50:31;101733.97;;;6.66;81.82
24013;BME280;12220;50.194;18.948;2023-01-10T10:52:34;101869.27;;;6.62;81.83
24013;BME280;12220;50.194;18.948;2023-01-10T10:54:37;101737.75;;;6.62;81.89
24013;BME280;12220;50.194;18.948;2023-01-10T10:56:39;101740.53;;;6.60;81.91
24013;BME280;12220;50.194;18.948;2023-01-10T10:58:45;101753.21;;;6.61;81.99
24013;BME280;12220;50.194;18.948;2023-01-10T11:00:48;101749.52;;;6.62;82.08
24013;BME280;12220;50.194;18.948;2023-01-10T11:05:12;101749.52;;;6.62;82.02
24013;BME280;12220;50.194;18.948;2023-01-10T11:07:16;101756.75;;;6.63;82.08
24013;BME280;12220;50.194;18.948;2023-01-10T11:09:21;101763.04;;;6.66;82.09
24013;BME280;12220;50.194;18.948;2023-01-10T11:11:45;101766.59;;;6.68;82.12
24013;BME280;12220;50.194;18.948;2023-01-10T11:14:05;101761.01;;;6.71;82.14
24013;BME280;12220;50.194;18.948;2023-01-10T11:16:07;101766.45;;;6.71;82.15
24013;BME280;12220;50.194;18.948;2023-01-10T11:18:14;101772.78;;;6.71;82.01
24013;BME280;12220;50.194;18.948;2023-01-10T11:20:16;101764.58;;;6.73;82.00
24013;BME280;12220;50.194;18.948;2023-01-10T11:22:19;101770.91;;;6.73;82.02
24013;BME280;12220;50.194;18.948;2023-01-10T11:24:27;101767.31;;;6.73;81.96
24013;BME280;12220;50.194;18.948;2023-01-10T11:26:36;101774.57;;;6.72;81.97
24013;BME280;12220;50.194;18.948;2023-01-10T11:28:40;101778.20;;;6.73;82.00
24013;BME280;12220;50.194;18.948;2023-01-10T11:30:47;101780.01;;;6.72;81.98
24013;BME280;12220;50.194;18.948;2023-01-10T11:32:59;101782.74;;;6.72;82.00
24013;BME280;12220;50.194;18.948;2023-01-10T11:35:06;101784.58;;;6.72;81.93
24013;BME280;12220;50.194;18.948;2023-01-10T11:37:17;101779.14;;;6.72;82.01
24013;BME280;12220;50.194;18.948;2023-01-10T11:39:18;101790.89;;;6.72;82.02
24013;BME280;12220;50.194;18.948;2023-01-10T11:41:25;101789.09;;;6.73;82.01
24013;BME280;12220;50.194;18.948;2023-01-10T11:43:38;101796.28;;;6.74;82.02
24013;BME280;12220;50.194;18.948;2023-01-10T11:45:41;101799.06;;;6.72;82.05
24013;BME280;12220;50.194;18.948;2023-01-10T11:47:46;101796.28;;;6.74;82.06
24013;BME280;12220;50.194;18.948;2023-01-10T11:49:49;101803.51;;;6.75;82.10
24013;BME280;12220;50.194;18.948;2023-01-10T11:51:55;101808.84;;;6.78;82.13
24013;BME280;12220;50.194;18.948;2023-01-10T11:54:00;101770.77;;;6.53;82.09
24013;BME280;12220;50.194;18.948;2023-01-10T11:56:03;101820.55;;;6.80;82.10
24013;BME280;12220;50.194;18.948;2023-01-10T11:58:11;101825.97;;;6.82;82.06
24013;BME280;12220;50.194;18.948;2023-01-10T12:00:15;101825.97;;;6.82;81.97
24013;BME280;12220;50.194;18.948;2023-01-10T12:02:30;101825.99;;;6.80;81.95
24013;BME280;12220;50.194;18.948;2023-01-10T12:04:31;101828.72;;;6.80;81.93
24013;BME280;12220;50.194;18.948;2023-01-10T12:06:33;101826.05;;;6.78;81.90
24013;BME280;12220;50.194;18.948;2023-01-10T12:08:37;101851.47;;;6.79;81.96
24013;BME280;12220;50.194;18.948;2023-01-10T12:10:50;101832.41;;;6.79;81.94
24013;BME280;12220;50.194;18.948;2023-01-10T12:12:55;101829.74;;;6.77;81.97